Time;durP1;ratioP1;P1;durP2;ratioP2;P2;SDS_P1;SDS_P2;PMS_P1;PMS_P2;Temp;Humidity;BMP_temperature;BMP_pressure;BME280_temperature;BME280_humidity;BME280_pressure;Samples;Min_cycle;Max_cycle;Signal;HPM_P1;HPM_P2
2022/08/22 00:01:36;;;;;;;;;;;16.60;99.90;;;;;;5092635;28;19908;-77
2022/08/22 00:04:15;;;;;;;;;;;16.50;99.90;;;;;;5093471;28;20053;-77
2022/08/22 00:06:40;;;;;;;;;;;16.60;99.90;;;;;;5092086;28;19915;-77
2022/08/22 00:09:15;;;;;;;;;;;16.50;99.90;;;;;;5093180;28;20269;-74
2022/08/22 00:11:41;;;;;;;;;;;16.40;99.90;;;;;;5092221;28;19909;-77
2022/08/22 00:14:17;;;;;;;;;;;16.40;99.90;;;;;;5093763;28;19915;-75
2022/08/22 00:16:51;;;;;;;;;;;16.40;99.90;;;;;;5093234;28;19919;-75
2022/08/22 00:19:26;;;;;;;;;;;16.40;99.90;;;;;;5093372;28;19912;-73
2022/08/22 00:21:52;;;;;;;;;;;16.50;99.90;;;;;;5093655;28;19908;-73
2022/08/22 00:24:26;;;;;;;;;;;16.30;99.90;;;;;;5093548;28;19931;-74
2022/08/22 00:26:54;;;;;;;;;;;16.30;99.90;;;;;;5093914;28;19909;-74
2022/08/22 00:29:22;;;;;;;;;;;16.30;99.90;;;;;;5092800;28;19908;-74
2022/08/22 00:31:51;;;;;;;;;;;16.20;99.90;;;;;;5093663;28;19912;-73
2022/08/22 00:34:17;;;;;;;;;;;16.30;99.90;;;;;;5093342;28;19973;-74
2022/08/22 00:36:51;;;;;;;;;;;16.30;99.90;;;;;;5092727;28;19915;-74
2022/08/22 00:39:20;;;;;;;;;;;16.30;99.90;;;;;;5091912;28;19954;-74
2022/08/22 00:42:07;;;;;;;;;;;16.20;99.90;;;;;;5093271;28;19908;-74
2022/08/22 00:44:35;;;;;;;;;;;16.30;99.90;;;;;;5092812;28;19915;-73
2022/08/22 00:47:00;;;;;;;;;;;16.30;99.90;;;;;;5093177;28;19938;-73
2022/08/22 00:49:49;;;;;;;;;;;16.30;99.90;;;;;;5092685;28;20352;-73
2022/08/22 00:52:35;;;;;;;;;;;16.30;99.90;;;;;;5082260;28;19909;-74
2022/08/22 00:55:26;;;;;;;;;;;16.20;99.90;;;;;;5087960;28;19908;-74
2022/08/22 00:57:58;;;;;;;;;;;16.30;99.90;;;;;;5091972;28;19912;-75
2022/08/22 01:00:28;;;;;;;;;;;16.30;99.90;;;;;;5092562;28;19912;-75
2022/08/22 01:03:12;;;;;;;;;;;16.30;99.90;;;;;;5093149;28;19912;-74
2022/08/22 01:05:49;;;;;;;;;;;16.30;99.90;;;;;;5092713;28;19908;-75
2022/08/22 01:08:35;;;;;;;;;;;16.30;99.90;;;;;;5093113;28;19908;-75
2022/08/22 01:11:11;;;;;;;;;;;16.30;99.90;;;;;;5093338;28;20333;-75
2022/08/22 01:13:37;;;;;;;;;;;16.30;99.90;;;;;;5092216;28;19909;-75
2022/08/22 01:16:19;;;;;;;;;;;16.40;99.90;;;;;;5092567;28;19930;-75
2022/08/22 01:18:51;;;;;;;;;;;16.40;99.90;;;;;;5092160;28;19923;-75
2022/08/22 01:21:35;;;;;;;;;;;16.40;99.90;;;;;;5092532;28;20306;-75
2022/08/22 01:24:19;;;;;;;;;;;16.50;99.90;;;;;;5092343;28;19962;-75
2022/08/22 01:27:00;;;;;;;;;;;16.50;99.90;;;;;;5092196;28;19908;-74
2022/08/22 01:29:32;;;;;;;;;;;16.50;99.90;;;;;;5091912;28;19936;-75
2022/08/22 01:32:16;;;;;;;;;;;16.50;99.90;;;;;;5092752;28;19908;-74
2022/08/22 01:35:02;;;;;;;;;;;16.50;99.90;;;;;;5092192;28;19924;-74
2022/08/22 01:37:28;;;;;;;;;;;16.60;99.90;;;;;;5092002;28;20387;-74
2022/08/22 01:40:12;;;;;;;;;;;16.60;99.90;;;;;;5091422;28;19916;-74
2022/08/22 01:42:56;;;;;;;;;;;16.60;99.90;;;;;;5090512;28;19977;-74
2022/08/22 01:45:40;;;;;;;;;;;16.60;99.90;;;;;;5092388;28;20257;-74
2022/08/22 01:48:18;;;;;;;;;;;16.50;99.90;;;;;;5091213;28;19908;-76
2022/08/22 01:51:02;;;;;;;;;;;16.50;99.90;;;;;;5091839;28;19912;-74
2022/08/22 01:53:27;;;;;;;;;;;16.50;99.90;;;;;;5090849;28;19916;-74
2022/08/22 01:55:55;;;;;;;;;;;16.50;99.90;;;;;;5092856;28;19909;-74
2022/08/22 01:58:26;;;;;;;;;;;16.60;99.90;;;;;;5092511;28;19912;-75
2022/08/22 02:00:55;;;;;;;;;;;16.50;99.90;;;;;;5092608;28;19912;-74
2022/08/22 02:03:23;;;;;;;;;;;16.40;99.90;;;;;;5092820;28;20272;-75
2022/08/22 02:05:53;;;;;;;;;;;16.40;99.90;;;;;;5091583;28;19980;-74
2022/08/22 02:08:41;;;;;;;;;;;16.30;99.90;;;;;;5094862;28;19912;-74
2022/08/22 02:11:11;;;;;;;;;;;16.20;99.90;;;;;;5096037;28;19908;-74
2022/08/22 02:13:37;;;;;;;;;;;16.20;99.90;;;;;;5095295;28;19999;-75
2022/08/22 02:16:09;;;;;;;;;;;16.20;99.90;;;;;;5096037;28;20395;-74
2022/08/22 02:18:49;;;;;;;;;;;16.20;99.90;;;;;;5095499;28;19923;-74
2022/08/22 02:21:19;;;;;;;;;;;16.20;99.90;;;;;;5095917;28;19908;-75
2022/08/22 02:23:54;;;;;;;;;;;16.30;99.90;;;;;;5095327;28;19942;-75
2022/08/22 02:26:22;;;;;;;;;;;16.30;99.90;;;;;;5095783;28;19915;-75
2022/08/22 02:28:56;;;;;;;;;;;16.30;99.90;;;;;;5095299;28;19989;-75
2022/08/22 02:31:34;;;;;;;;;;;16.30;99.90;;;;;;5095719;28;19908;-75
2022/08/22 02:34:02;;;;;;;;;;;16.30;99.90;;;;;;5095651;28;19946;-75
2022/08/22 02:36:30;;;;;;;;;;;16.20;99.90;;;;;;5095039;28;20015;-75
2022/08/22 02:39:14;;;;;;;;;;;16.30;99.90;;;;;;5096066;28;19944;-75
2022/08/22 02:41:47;;;;;;;;;;;16.30;99.90;;;;;;5094985;28;19999;-75
2022/08/22 02:44:39;;;;;;;;;;;16.30;99.90;;;;;;5095638;28;19999;-75
2022/08/22 02:47:08;;;;;;;;;;;16.30;99.90;;;;;;5094171;28;19943;-75
2022/08/22 02:49:46;;;;;;;;;;;16.40;99.90;;;;;;5094633;28;19909;-75
2022/08/22 02:52:16;;;;;;;;;;;16.40;99.90;;;;;;5095066;28;19910;-74
2022/08/22 02:54:44;;;;;;;;;;;16.50;99.90;;;;;;5094799;28;20023;-75
2022/08/22 02:57:12;;;;;;;;;;;16.50;99.90;;;;;;5095233;28;20003;-75
2022/08/22 02:59:57;;;;;;;;;;;16.50;99.90;;;;;;5094232;28;20430;-75
2022/08/22 03:02:26;;;;;;;;;;;16.60;99.90;;;;;;5095194;28;19915;-75
2022/08/22 03:04:54;;;;;;;;;;;16.60;99.90;;;;;;5094385;28;20360;-75
2022/08/22 03:07:20;;;;;;;;;;;16.70;99.90;;;;;;5094782;28;19953;-75
2022/08/22 03:10:04;;;;;;;;;;;16.70;99.90;;;;;;5094445;28;19912;-75
2022/08/22 03:12:43;;;;;;;;;;;16.70;99.90;;;;;;5094835;28;20421;-75
2022/08/22 03:15:17;;;;;;;;;;;16.70;99.90;;;;;;5094740;28;20365;-75
2022/08/22 03:17:51;;;;;;;;;;;16.70;99.90;;;;;;5094093;28;19965;-75
2022/08/22 03:20:34;;;;;;;;;;;16.70;99.90;;;;;;5094265;28;19912;-75
2022/08/22 03:23:04;;;;;;;;;;;16.70;99.90;;;;;;5094849;28;19908;-75
2022/08/22 03:25:29;;;;;;;;;;;16.70;99.90;;;;;;5094551;28;19952;-75
2022/08/22 03:28:04;;;;;;;;;;;16.70;99.90;;;;;;5093822;28;19990;-75
2022/08/22 03:30:42;;;;;;;;;;;16.70;99.90;;;;;;5094349;28;20280;-75
2022/08/22 03:33:16;;;;;;;;;;;16.70;99.90;;;;;;5094659;28;19912;-75
2022/08/22 03:35:45;;;;;;;;;;;16.60;99.90;;;;;;5094051;28;19920;-75
2022/08/22 03:38:17;;;;;;;;;;;16.60;99.90;;;;;;5093053;28;19912;-74
2022/08/22 03:41:02;;;;;;;;;;;16.60;99.90;;;;;;5093921;28;20315;-75
2022/08/22 03:43:39;;;;;;;;;;;16.70;99.90;;;;;;5094595;28;20365;-75
2022/08/22 03:46:11;;;;;;;;;;;16.60;99.90;;;;;;5093982;28;19934;-75
2022/08/22 03:49:06;;;;;;;;;;;16.70;99.90;;;;;;5093755;28;19908;-75
2022/08/22 03:51:38;;;;;;;;;;;16.60;99.90;;;;;;5088999;28;19912;-75
2022/08/22 03:54:10;;;;;;;;;;;16.60;99.90;;;;;;5094180;28;20337;-75
2022/08/22 03:56:37;;;;;;;;;;;16.60;99.90;;;;;;5092287;28;20282;-75
2022/08/22 03:59:05;;;;;;;;;;;16.60;99.90;;;;;;5093824;28;19912;-75
2022/08/22 04:01:49;;;;;;;;;;;16.60;99.90;;;;;;5094291;28;19908;-75
2022/08/22 04:04:30;;;;;;;;;;;16.60;99.90;;;;;;5093731;28;19909;-75
2022/08/22 04:07:02;;;;;;;;;;;16.60;99.90;;;;;;5093383;28;20599;-74
2022/08/22 04:09:33;;;;;;;;;;;16.60;99.90;;;;;;5093499;28;19911;-74
2022/08/22 04:12:09;;;;;;;;;;;16.60;99.90;;;;;;5093200;28;19912;-74
2022/08/22 04:14:42;;;;;;;;;;;16.60;99.90;;;;;;5093546;28;19916;-75
2022/08/22 04:17:14;;;;;;;;;;;16.50;99.90;;;;;;5092964;28;19919;-74
2022/08/22 04:19:39;;;;;;;;;;;16.60;99.90;;;;;;5093206;28;20402;-75
2022/08/22 04:22:16;;;;;;;;;;;16.50;99.90;;;;;;5093574;28;19908;-74
2022/08/22 04:24:41;;;;;;;;;;;16.60;99.90;;;;;;5093185;28;19908;-75
2022/08/22 04:27:18;;;;;;;;;;;16.50;99.90;;;;;;5093647;28;19914;-75
2022/08/22 04:30:02;;;;;;;;;;;16.50;99.90;;;;;;5092452;28;19908;-75
2022/08/22 04:32:30;;;;;;;;;;;16.50;99.90;;;;;;5093513;28;20238;-74
2022/08/22 04:35:01;;;;;;;;;;;16.50;99.90;;;;;;5092795;28;19973;-75
2022/08/22 04:37:27;;;;;;;;;;;16.60;99.90;;;;;;5091967;28;20336;-75
2022/08/22 04:39:52;;;;;;;;;;;16.60;99.90;;;;;;5092906;28;19912;-75
2022/08/22 04:42:31;;;;;;;;;;;16.60;99.90;;;;;;5093172;28;19938;-74
2022/08/22 04:45:09;;;;;;;;;;;16.70;99.90;;;;;;5092869;28;19908;-74
2022/08/22 04:47:47;;;;;;;;;;;16.70;99.90;;;;;;5093206;28;19908;-74
2022/08/22 04:50:22;;;;;;;;;;;16.70;99.90;;;;;;5093097;28;19908;-75
2022/08/22 04:52:47;;;;;;;;;;;16.70;99.90;;;;;;5091392;28;19915;-74
2022/08/22 04:55:23;;;;;;;;;;;16.70;99.90;;;;;;5093220;28;20339;-74
2022/08/22 04:57:48;;;;;;;;;;;16.80;99.90;;;;;;5092548;28;19952;-75
2022/08/22 05:00:15;;;;;;;;;;;16.80;99.90;;;;;;5093400;28;20320;-74
2022/08/22 05:02:45;;;;;;;;;;;16.70;99.90;;;;;;5091130;28;19954;-74
2022/08/22 05:05:14;;;;;;;;;;;16.70;99.90;;;;;;5092933;28;19915;-75
2022/08/22 05:07:44;;;;;;;;;;;16.70;99.90;;;;;;5092548;28;19908;-75
2022/08/22 05:10:17;;;;;;;;;;;16.70;99.90;;;;;;5093365;28;19947;-75
2022/08/22 05:12:46;;;;;;;;;;;16.70;99.90;;;;;;5092728;28;19943;-75
2022/08/22 05:15:15;;;;;;;;;;;16.80;99.90;;;;;;5093006;28;19915;-75
2022/08/22 05:17:41;;;;;;;;;;;16.80;99.90;;;;;;5090692;28;19919;-74
2022/08/22 05:20:10;;;;;;;;;;;16.80;99.90;;;;;;5092431;28;20430;-75
2022/08/22 05:22:39;;;;;;;;;;;16.80;99.90;;;;;;5092632;28;19915;-75
2022/08/22 05:25:09;;;;;;;;;;;16.80;99.90;;;;;;5092220;28;19908;-75
2022/08/22 05:27:39;;;;;;;;;;;16.90;99.90;;;;;;5074933;28;19908;-75
2022/08/22 05:30:08;;;;;;;;;;;16.80;99.90;;;;;;5091306;28;19915;-75
2022/08/22 05:32:40;;;;;;;;;;;16.90;99.90;;;;;;5092757;28;19916;-74
2022/08/22 05:35:07;;;;;;;;;;;16.80;99.90;;;;;;5092596;28;19920;-75
2022/08/22 05:37:43;;;;;;;;;;;16.80;99.90;;;;;;5092526;28;20361;-74
2022/08/22 05:40:19;;;;;;;;;;;16.80;99.90;;;;;;5092156;28;19922;-75
2022/08/22 05:42:45;;;;;;;;;;;16.80;99.90;;;;;;5095035;28;20273;-76
2022/08/22 05:45:11;;;;;;;;;;;16.80;99.90;;;;;;5096708;28;19915;-74
2022/08/22 05:47:39;;;;;;;;;;;16.80;99.90;;;;;;5094648;28;19965;-75
2022/08/22 05:50:07;;;;;;;;;;;16.80;99.90;;;;;;5094435;28;19909;-74
2022/08/22 05:52:41;;;;;;;;;;;16.90;99.90;;;;;;5096374;28;19908;-74
2022/08/22 05:55:09;;;;;;;;;;;16.90;99.90;;;;;;5095829;28;19909;-74
2022/08/22 05:57:38;;;;;;;;;;;17.00;99.90;;;;;;5096272;28;20015;-75
2022/08/22 06:00:10;;;;;;;;;;;17.00;99.90;;;;;;5094321;28;20369;-75
2022/08/22 06:02:53;;;;;;;;;;;17.10;99.90;;;;;;5096298;28;19970;-75
2022/08/22 06:05:24;;;;;;;;;;;17.10;99.90;;;;;;5095877;28;19920;-74
2022/08/22 06:07:53;;;;;;;;;;;17.20;99.90;;;;;;5095705;28;20000;-75
2022/08/22 06:10:21;;;;;;;;;;;17.20;99.90;;;;;;5095810;28;19912;-76
2022/08/22 06:13:06;;;;;;;;;;;17.20;99.90;;;;;;5094248;28;19908;-75
2022/08/22 06:15:31;;;;;;;;;;;17.30;99.90;;;;;;5095671;28;20304;-76
2022/08/22 06:17:59;;;;;;;;;;;17.20;99.90;;;;;;5094746;28;19912;-74
2022/08/22 06:20:42;;;;;;;;;;;17.20;99.90;;;;;;5095709;28;19935;-74
2022/08/22 06:23:11;;;;;;;;;;;17.30;99.90;;;;;;5095522;28;19991;-75
2022/08/22 06:25:39;;;;;;;;;;;17.30;99.90;;;;;;5095597;28;19994;-74
2022/08/22 06:28:10;;;;;;;;;;;17.30;99.90;;;;;;5095241;28;19914;-75
2022/08/22 06:30:38;;;;;;;;;;;17.40;99.90;;;;;;5095499;28;19908;-75
2022/08/22 06:33:11;;;;;;;;;;;17.40;99.90;;;;;;5095079;28;20490;-74
2022/08/22 06:38:28;;;;;;;;;;;17.50;99.90;;;;;;5095440;28;20012;-74
2022/08/22 06:40:54;;;;;;;;;;;17.50;99.90;;;;;;5095422;28;20105;-75
2022/08/22 06:43:21;;;;;;;;;;;17.60;99.90;;;;;;5095267;28;20293;-75
2022/08/22 06:45:48;;;;;;;;;;;17.60;99.90;;;;;;5093635;28;19908;-76
2022/08/22 06:48:16;;;;;;;;;;;17.60;99.90;;;;;;5095119;28;19908;-75
2022/08/22 06:50:42;;;;;;;;;;;17.60;99.90;;;;;;5095053;28;20027;-74
2022/08/22 06:53:15;;;;;;;;;;;17.70;99.90;;;;;;5094031;28;20392;-74
2022/08/22 06:56:02;;;;;;;;;;;17.70;99.90;;;;;;5095438;28;20437;-75
2022/08/22 06:58:31;;;;;;;;;;;17.80;99.90;;;;;;5094449;28;20343;-75
2022/08/22 07:00:59;;;;;;;;;;;17.80;99.90;;;;;;5094523;28;19912;-74
2022/08/22 07:03:28;;;;;;;;;;;17.80;99.90;;;;;;5095491;28;19915;-75
2022/08/22 07:05:54;;;;;;;;;;;17.80;99.90;;;;;;5094567;28;20311;-75
2022/08/22 07:08:21;;;;;;;;;;;17.80;99.90;;;;;;5094953;28;19909;-75
2022/08/22 07:10:50;;;;;;;;;;;17.90;99.90;;;;;;5093335;28;19974;-75
2022/08/22 07:13:17;;;;;;;;;;;17.90;99.90;;;;;;5094492;28;19955;-75
2022/08/22 07:15:49;;;;;;;;;;;17.90;99.90;;;;;;5095305;28;19908;-75
2022/08/22 07:18:15;;;;;;;;;;;17.90;99.90;;;;;;5094393;28;19912;-75
2022/08/22 07:20:44;;;;;;;;;;;17.90;99.90;;;;;;5094779;28;19962;-75
2022/08/22 07:23:11;;;;;;;;;;;18.00;99.90;;;;;;5094091;28;19919;-75
2022/08/22 07:25:51;;;;;;;;;;;18.00;99.90;;;;;;5094874;28;19908;-75
2022/08/22 07:28:24;;;;;;;;;;;18.00;99.90;;;;;;5094669;28;19908;-75
2022/08/22 07:30:50;;;;;;;;;;;18.10;99.90;;;;;;5094189;28;19908;-74
2022/08/22 07:33:50;;;;;;;;;;;18.10;99.90;;;;;;5094157;28;19909;-74
2022/08/22 07:36:19;;;;;;;;;;;18.10;99.90;;;;;;5071699;28;20003;-75
2022/08/22 07:38:54;;;;;;;;;;;18.10;99.90;;;;;;5090063;28;19938;-74
2022/08/22 07:41:23;;;;;;;;;;;18.20;99.90;;;;;;5094362;28;20045;-77
2022/08/22 07:43:53;;;;;;;;;;;18.10;99.90;;;;;;5093993;28;19912;-76
2022/08/22 07:46:22;;;;;;;;;;;18.20;99.90;;;;;;5094124;28;19919;-75
2022/08/22 07:48:50;;;;;;;;;;;18.20;99.90;;;;;;5093996;28;19915;-75
2022/08/22 07:51:17;;;;;;;;;;;18.10;99.90;;;;;;5094435;28;19908;-75
2022/08/22 07:53:51;;;;;;;;;;;18.20;99.90;;;;;;5094586;28;19908;-75
2022/08/22 07:56:24;;;;;;;;;;;18.20;99.90;;;;;;5109402;28;19908;-75
2022/08/22 07:58:55;;;;;;;;;;;18.30;99.90;;;;;;5094274;28;19923;-75
2022/08/22 08:01:21;;;;;;;;;;;18.40;99.90;;;;;;5094309;28;19908;-75
2022/08/22 08:04:07;;;;;;;;;;;18.50;99.90;;;;;;5092252;28;20280;-75
2022/08/22 08:06:33;;;;;;;;;;;18.50;99.90;;;;;;5091816;28;19914;-76
2022/08/22 08:09:00;;;;;;;;;;;18.50;99.90;;;;;;5091632;28;19938;-75
2022/08/22 08:11:28;;;;;;;;;;;18.60;99.90;;;;;;5092220;28;19969;-75
2022/08/22 08:13:57;;;;;;;;;;;18.60;99.90;;;;;;5092598;28;19914;-75
2022/08/22 08:16:25;;;;;;;;;;;18.70;99.90;;;;;;5092523;28;19915;-74
2022/08/22 08:18:52;;;;;;;;;;;18.80;99.90;;;;;;5090926;28;20272;-74
2022/08/22 08:21:34;;;;;;;;;;;18.80;99.90;;;;;;5092801;28;19934;-75
2022/08/22 08:24:01;;;;;;;;;;;18.80;99.90;;;;;;5112011;28;19907;-74
2022/08/22 08:26:31;;;;;;;;;;;18.90;99.90;;;;;;5113182;28;20418;-74
2022/08/22 08:28:57;;;;;;;;;;;19.00;99.90;;;;;;5113108;28;19933;-75
2022/08/22 08:31:30;;;;;;;;;;;19.10;99.90;;;;;;5113307;28;19917;-75
2022/08/22 08:34:04;;;;;;;;;;;19.20;99.90;;;;;;5112877;28;19945;-75
2022/08/22 08:36:29;;;;;;;;;;;19.30;99.90;;;;;;5103918;28;19916;-75
2022/08/22 08:38:58;;;;;;;;;;;19.40;99.90;;;;;;5092479;28;20269;-75
2022/08/22 08:41:23;;;;;;;;;;;19.40;99.90;;;;;;5092845;28;19911;-74
2022/08/22 08:44:00;;;;;;;;;;;19.30;99.90;;;;;;5092801;28;19912;-75
2022/08/22 08:46:44;;;;;;;;;;;19.30;99.90;;;;;;5093060;28;19931;-74
2022/08/22 08:49:10;;;;;;;;;;;19.30;99.90;;;;;;5092478;28;19916;-75
2022/08/22 08:51:51;;;;;;;;;;;19.40;99.90;;;;;;5093081;28;19908;-76
2022/08/22 08:54:35;;;;;;;;;;;19.40;99.90;;;;;;5092322;28;19992;-74
2022/08/22 08:57:09;;;;;;;;;;;19.50;99.90;;;;;;5090654;28;19912;-74
2022/08/22 08:59:50;;;;;;;;;;;19.70;99.90;;;;;;5092666;28;19920;-74
2022/08/22 09:02:41;;;;;;;;;;;19.90;99.90;;;;;;5092300;28;19908;-74
2022/08/22 09:05:11;;;;;;;;;;;20.00;99.90;;;;;;5092278;28;19908;-75
2022/08/22 09:07:43;;;;;;;;;;;20.20;99.90;;;;;;5093001;28;19995;-74
2022/08/22 09:10:40;;;;;;;;;;;20.30;99.90;;;;;;5091931;28;19919;-74
2022/08/22 09:13:25;;;;;;;;;;;20.30;99.90;;;;;;5068498;28;19971;-75
2022/08/22 09:16:02;;;;;;;;;;;20.20;99.90;;;;;;5092380;28;19912;-74
2022/08/22 09:18:28;;;;;;;;;;;20.10;99.90;;;;;;5095487;28;19918;-75
2022/08/22 09:21:00;;;;;;;;;;;20.10;99.90;;;;;;5096432;28;19912;-74
2022/08/22 09:23:40;;;;;;;;;;;20.10;99.90;;;;;;5096431;28;19919;-74
2022/08/22 09:26:15;;;;;;;;;;;20.20;99.90;;;;;;5096126;28;19931;-75
2022/08/22 09:28:52;;;;;;;;;;;20.30;99.90;;;;;;5096231;28;19912;-74
2022/08/22 09:31:36;;;;;;;;;;;20.30;99.90;;;;;;5094141;28;20010;-75
2022/08/22 09:34:07;;;;;;;;;;;20.10;99.90;;;;;;5095056;28;19927;-74
2022/08/22 09:36:55;;;;;;;;;;;20.00;99.90;;;;;;5094568;28;19993;-75
2022/08/22 09:39:36;;;;;;;;;;;19.90;99.90;;;;;;5095846;28;19963;-75
2022/08/22 09:42:13;;;;;;;;;;;19.80;99.90;;;;;;5094799;28;19953;-74
2022/08/22 09:44:57;;;;;;;;;;;19.70;99.90;;;;;;5096438;28;19912;-74
2022/08/22 09:47:32;;;;;;;;;;;19.50;99.90;;;;;;5096235;28;19962;-74
2022/08/22 09:50:04;;;;;;;;;;;19.50;99.90;;;;;;5093440;28;19923;-74
2022/08/22 09:52:48;;;;;;;;;;;19.50;99.90;;;;;;5092279;28;20281;-74
2022/08/22 09:55:26;;;;;;;;;;;19.40;99.90;;;;;;5092830;28;19963;-73
2022/08/22 09:57:58;;;;;;;;;;;19.60;99.90;;;;;;5093381;28;20011;-74
2022/08/22 10:00:29;;;;;;;;;;;19.70;99.90;;;;;;5093407;28;20003;-74
2022/08/22 10:03:05;;;;;;;;;;;19.70;99.90;;;;;;5092989;28;20234;-75
2022/08/22 10:05:36;;;;;;;;;;;19.80;99.90;;;;;;5091968;28;19912;-74
2022/08/22 10:08:02;;;;;;;;;;;19.70;99.90;;;;;;5092731;28;20349;-75
2022/08/22 10:10:33;;;;;;;;;;;19.70;99.90;;;;;;5092009;28;19957;-74
2022/08/22 10:13:05;;;;;;;;;;;19.70;99.90;;;;;;5090983;28;20306;-74
2022/08/22 10:15:50;;;;;;;;;;;19.60;99.90;;;;;;5093289;28;19920;-74
2022/08/22 10:18:25;;;;;;;;;;;19.70;99.90;;;;;;5091882;28;20357;-75
2022/08/22 10:21:00;;;;;;;;;;;19.70;99.90;;;;;;5092998;28;20017;-75
2022/08/22 10:23:32;;;;;;;;;;;19.70;99.90;;;;;;5092683;28;19923;-74
2022/08/22 10:26:17;;;;;;;;;;;19.80;99.90;;;;;;5092838;28;20031;-73
2022/08/22 10:28:54;;;;;;;;;;;19.80;99.90;;;;;;5085351;28;20408;-75
2022/08/22 10:31:24;;;;;;;;;;;19.90;99.90;;;;;;5092489;28;19916;-73
2022/08/22 10:33:56;;;;;;;;;;;19.90;99.90;;;;;;5092823;28;19927;-73
2022/08/22 10:36:35;;;;;;;;;;;19.90;99.90;;;;;;5092388;28;20360;-74
2022/08/22 10:39:04;;;;;;;;;;;20.00;99.90;;;;;;5092365;28;20343;-74
2022/08/22 10:41:39;;;;;;;;;;;19.90;99.90;;;;;;5092057;28;19918;-74
2022/08/22 10:44:05;;;;;;;;;;;19.90;99.90;;;;;;5091357;28;20272;-74
2022/08/22 10:46:35;;;;;;;;;;;19.70;99.90;;;;;;5091917;28;19916;-75
2022/08/22 10:49:02;;;;;;;;;;;19.60;99.90;;;;;;5091365;28;19938;-75
2022/08/22 10:51:34;;;;;;;;;;;19.50;99.90;;;;;;5091666;28;19912;-74
2022/08/22 10:54:09;;;;;;;;;;;19.60;99.90;;;;;;5092340;28;19924;-75
2022/08/22 10:57:02;;;;;;;;;;;19.60;99.90;;;;;;5090884;28;19935;-74
2022/08/22 10:59:54;;;;;;;;;;;19.60;99.90;;;;;;5075174;28;19916;-74
2022/08/22 11:02:20;;;;;;;;;;;19.70;99.90;;;;;;5092073;28;19924;-74
2022/08/22 11:05:04;;;;;;;;;;;19.80;99.90;;;;;;5092581;28;20281;-74
2022/08/22 11:07:30;;;;;;;;;;;19.80;99.90;;;;;;5092377;28;19967;-74
2022/08/22 11:10:02;;;;;;;;;;;20.00;99.90;;;;;;5091821;28;19915;-74
2022/08/22 11:12:32;;;;;;;;;;;20.20;99.90;;;;;;5091943;28;20007;-74
2022/08/22 11:15:03;;;;;;;;;;;20.30;99.90;;;;;;5091119;28;19912;-75
2022/08/22 11:17:52;;;;;;;;;;;20.50;99.90;;;;;;5091682;28;20330;-74
2022/08/22 11:20:26;;;;;;;;;;;20.80;99.90;;;;;;5091482;28;19956;-74
2022/08/22 11:23:10;;;;;;;;;;;21.00;99.90;;;;;;5091704;28;19912;-75
2022/08/22 11:25:40;;;;;;;;;;;21.10;99.90;;;;;;5091419;28;20323;-75
2022/08/22 11:28:24;;;;;;;;;;;21.40;99.90;;;;;;5091198;28;19912;-75
2022/08/22 11:30:59;;;;;;;;;;;21.50;99.90;;;;;;5090290;28;20293;-76
2022/08/22 11:33:45;;;;;;;;;;;21.80;99.90;;;;;;5091535;28;19916;-75
2022/08/22 11:36:20;;;;;;;;;;;22.00;99.90;;;;;;5090095;28;19919;-75
2022/08/22 11:38:46;;;;;;;;;;;22.30;99.90;;;;;;5091254;28;19923;-75
2022/08/22 11:41:21;;;;;;;;;;;22.40;99.90;;;;;;5090732;28;20285;-75
2022/08/22 11:43:55;;;;;;;;;;;22.40;99.90;;;;;;5092451;28;19919;-74
2022/08/22 11:46:23;;;;;;;;;;;22.30;99.90;;;;;;5090389;28;20376;-73
2022/08/22 11:49:03;;;;;;;;;;;22.20;99.90;;;;;;5091708;28;19969;-74
2022/08/22 11:51:47;;;;;;;;;;;22.20;99.90;;;;;;5091646;28;19916;-74
2022/08/22 11:54:33;;;;;;;;;;;22.00;99.90;;;;;;5090240;28;20356;-74
2022/08/22 11:57:10;;;;;;;;;;;21.80;99.90;;;;;;5090137;28;19929;-75
2022/08/22 11:59:45;;;;;;;;;;;21.60;99.90;;;;;;5090550;28;20373;-75
2022/08/22 12:02:17;;;;;;;;;;;21.70;99.90;;;;;;5088840;28;19962;-75
2022/08/22 12:05:03;;;;;;;;;;;21.90;99.90;;;;;;5090667;28;19912;-75
2022/08/22 12:07:35;;;;;;;;;;;22.10;99.90;;;;;;5090784;28;19920;-75
2022/08/22 12:10:03;;;;;;;;;;;22.30;99.90;;;;;;5089708;28;21482;-75
2022/08/22 12:13:00;;;;;;;;;;;22.50;99.90;;;;;;5091234;28;19916;-76
2022/08/22 12:15:44;;;;;;;;;;;22.80;99.90;;;;;;5048286;28;20398;-75
2022/08/22 12:18:21;;;;;;;;;;;23.00;99.90;;;;;;5047223;28;19916;-75
2022/08/22 12:21:06;;;;;;;;;;;23.20;99.90;;;;;;5047086;28;19994;-74
2022/08/22 12:23:40;;;;;;;;;;;23.10;99.90;;;;;;5047587;28;20358;-75
2022/08/22 12:26:05;;;;;;;;;;;23.10;99.90;;;;;;5047257;28;19920;-75
2022/08/22 12:28:31;;;;;;;;;;;23.10;99.90;;;;;;5047485;28;19913;-75
2022/08/22 12:31:04;;;;;;;;;;;23.00;99.90;;;;;;5047642;28;19913;-75
2022/08/22 12:33:48;;;;;;;;;;;23.00;99.90;;;;;;5047812;28;20397;-74
2022/08/22 12:36:20;;;;;;;;;;;23.00;99.90;;;;;;5046890;28;19912;-74
2022/08/22 12:39:04;;;;;;;;;;;23.00;99.90;;;;;;5047359;28;20382;-75
2022/08/22 12:41:29;;;;;;;;;;;23.10;99.90;;;;;;5047326;28;19960;-74
2022/08/22 12:43:55;;;;;;;;;;;23.10;99.90;;;;;;5046862;28;19954;-74
2022/08/22 12:46:43;;;;;;;;;;;23.20;99.90;;;;;;5047272;28;19931;-74
2022/08/22 12:49:11;;;;;;;;;;;23.20;99.90;;;;;;5044926;28;19925;-74
2022/08/22 12:51:56;;;;;;;;;;;23.30;99.90;;;;;;5063575;28;19914;-74
2022/08/22 12:54:40;;;;;;;;;;;23.30;99.90;;;;;;5087530;28;19912;-75
2022/08/22 12:57:15;;;;;;;;;;;23.30;99.90;;;;;;5088480;28;19920;-75
2022/08/22 12:59:45;;;;;;;;;;;23.40;99.90;;;;;;5089388;28;19942;-75
2022/08/22 13:02:31;;;;;;;;;;;23.50;99.90;;;;;;5087701;28;19916;-76
2022/08/22 13:04:58;;;;;;;;;;;23.50;99.90;;;;;;5089018;28;19912;-73
2022/08/22 13:07:27;;;;;;;;;;;23.40;99.90;;;;;;5089152;28;19955;-75
2022/08/22 13:10:12;;;;;;;;;;;23.40;99.90;;;;;;5089144;28;20025;-74
2022/08/22 13:12:40;;;;;;;;;;;23.30;99.90;;;;;;5089193;28;19919;-75
2022/08/22 13:15:26;;;;;;;;;;;23.40;99.90;;;;;;5088626;28;19913;-75
2022/08/22 13:17:52;;;;;;;;;;;23.40;99.90;;;;;;5088547;28;19916;-75
2022/08/22 13:20:36;;;;;;;;;;;23.50;99.90;;;;;;5088474;28;19916;-74
2022/08/22 13:23:05;;;;;;;;;;;23.50;99.90;;;;;;5087352;28;19926;-75
2022/08/22 13:25:51;;;;;;;;;;;23.70;99.90;;;;;;5088500;28;19912;-75
2022/08/22 13:28:16;;;;;;;;;;;23.80;99.90;;;;;;5088913;28;19980;-75
2022/08/22 13:30:42;;;;;;;;;;;24.00;99.90;;;;;;5089110;28;19999;-75
2022/08/22 13:33:21;;;;;;;;;;;24.10;99.90;;;;;;5089322;28;19919;-75
2022/08/22 13:35:48;;;;;;;;;;;24.20;99.90;;;;;;5088833;28;19994;-75
2022/08/22 13:38:28;;;;;;;;;;;24.30;99.90;;;;;;5088014;28;19916;-76
2022/08/22 13:40:55;;;;;;;;;;;24.20;99.90;;;;;;5089977;28;19917;-76
2022/08/22 13:43:23;;;;;;;;;;;24.10;99.90;;;;;;5089019;28;19908;-76
2022/08/22 13:45:53;;;;;;;;;;;24.10;99.90;;;;;;5090183;28;19916;-76
2022/08/22 13:48:21;;;;;;;;;;;24.00;99.90;;;;;;5089243;28;19916;-76
2022/08/22 13:51:09;;;;;;;;;;;24.00;99.90;;;;;;5089757;28;19912;-75
2022/08/22 13:53:39;;;;;;;;;;;24.00;99.90;;;;;;5089945;28;20286;-75
2022/08/22 13:56:06;;;;;;;;;;;24.10;99.90;;;;;;5088749;28;20373;-75
2022/08/22 13:58:46;;;;;;;;;;;24.10;99.90;;;;;;5089544;28;20300;-74
2022/08/22 14:01:14;;;;;;;;;;;24.10;99.90;;;;;;5088486;28;20394;-74
2022/08/22 14:03:40;;;;;;;;;;;24.10;99.90;;;;;;5091731;28;20015;-74
2022/08/22 14:06:20;;;;;;;;;;;24.00;99.90;;;;;;5091065;28;20343;-76
2022/08/22 14:08:47;;;;;;;;;;;24.10;99.90;;;;;;5093112;28;19918;-74
2022/08/22 14:11:37;;;;;;;;;;;24.20;99.90;;;;;;5092084;28;19912;-74
2022/08/22 14:14:04;;;;;;;;;;;24.30;99.90;;;;;;5091460;28;20394;-75
2022/08/22 14:16:38;;;;;;;;;;;24.30;99.90;;;;;;5092321;28;20411;-74
2022/08/22 14:19:05;;;;;;;;;;;24.30;99.90;;;;;;5092109;28;19927;-75
2022/08/22 14:21:34;;;;;;;;;;;24.30;99.90;;;;;;5092995;28;19957;-75
2022/08/22 14:24:07;;;;;;;;;;;24.30;99.90;;;;;;5093152;28;19918;-75
2022/08/22 14:26:38;;;;;;;;;;;24.30;99.90;;;;;;5091990;28;20292;-75
2022/08/22 14:29:12;;;;;;;;;;;24.30;99.90;;;;;;5092752;28;20342;-76
2022/08/22 14:31:37;;;;;;;;;;;24.30;99.90;;;;;;5092707;28;19942;-76
2022/08/22 14:34:09;;;;;;;;;;;24.30;99.90;;;;;;5091823;28;19997;-76
2022/08/22 14:36:40;;;;;;;;;;;24.30;99.90;;;;;;5092215;28;20373;-74
2022/08/22 14:39:10;;;;;;;;;;;24.30;99.90;;;;;;5091179;28;19972;-75
2022/08/22 14:41:41;;;;;;;;;;;24.30;99.90;;;;;;5092337;28;20361;-74
2022/08/22 14:44:10;;;;;;;;;;;24.30;99.90;;;;;;5091452;28;20604;-75
2022/08/22 14:46:46;;;;;;;;;;;24.40;99.90;;;;;;5092480;28;19924;-74
2022/08/22 14:49:12;;;;;;;;;;;24.40;99.90;;;;;;5091744;28;20399;-75
2022/08/22 14:51:38;;;;;;;;;;;24.40;99.90;;;;;;5092463;28;19912;-75
2022/08/22 14:54:22;;;;;;;;;;;24.40;99.90;;;;;;5090643;28;19954;-75
2022/08/22 14:56:50;;;;;;;;;;;24.40;99.90;;;;;;5091839;28;19954;-75